sensor_id;sensor_type;location;lat;lon;timestamp;pressure;altitude;pressure_sealevel;temperature;humidity
60337;BME280;46978;50.288;28.624;2023-05-22T00:00:18;99433.03;;;6.00;91.35
60337;BME280;46978;50.288;28.624;2023-05-22T00:01:22;99434.77;;;6.00;92.04
60337;BME280;46978;50.288;28.624;2023-05-22T00:02:24;99427.88;;;5.99;92.41
60337;BME280;46978;50.288;28.624;2023-05-22T00:03:25;99429.61;;;5.98;92.44
60337;BME280;46978;50.288;28.624;2023-05-22T00:04:27;99432.19;;;5.97;92.50
60337;BME280;46978;50.288;28.624;2023-05-22T00:05:29;99432.19;;;5.97;92.59
60337;BME280;46978;50.288;28.624;2023-05-22T00:06:31;99427.88;;;5.97;92.72
60337;BME280;46978;50.288;28.624;2023-05-22T00:07:32;99426.12;;;5.96;92.75
60337;BME280;46978;50.288;28.624;2023-05-22T00:08:34;99424.42;;;5.95;92.54
60337;BME280;46978;50.288;28.624;2023-05-22T00:09:36;99426.12;;;5.95;92.68
60337;BME280;46978;50.288;28.624;2023-05-22T00:10:38;99424.42;;;5.95;92.64
60337;BME280;46978;50.288;28.624;2023-05-22T00:11:39;99419.30;;;5.97;93.56
60337;BME280;46978;50.288;28.624;2023-05-22T00:12:41;99427.84;;;5.96;93.35
60337;BME280;46978;50.288;28.624;2023-05-22T00:13:43;99425.27;;;5.96;93.41
60337;BME280;46978;50.288;28.624;2023-05-22T00:14:44;99425.27;;;5.96;93.42
60337;BME280;46978;50.288;28.624;2023-05-22T00:15:46;99420.12;;;5.94;93.08
60337;BME280;46978;50.288;28.624;2023-05-22T00:16:47;99418.39;;;5.93;93.20
60337;BME280;46978;50.288;28.624;2023-05-22T00:17:49;99420.12;;;5.92;93.18
60337;BME280;46978;50.288;28.624;2023-05-22T00:18:51;99420.95;;;5.90;92.87
60337;BME280;46978;50.288;28.624;2023-05-22T00:19:53;99423.53;;;5.91;93.39
60337;BME280;46978;50.288;28.624;2023-05-22T00:20:55;99427.84;;;5.91;93.69
60337;BME280;46978;50.288;28.624;2023-05-22T00:21:57;99421.84;;;5.92;93.81
60337;BME280;46978;50.288;28.624;2023-05-22T00:22:58;99423.54;;;5.93;93.12
60337;BME280;46978;50.288;28.624;2023-05-22T00:24:00;99420.96;;;5.91;93.05
60337;BME280;46978;50.288;28.624;2023-05-22T00:25:03;99420.95;;;5.90;93.10
60337;BME280;46978;50.288;28.624;2023-05-22T00:26:05;99420.11;;;5.89;93.18
60337;BME280;46978;50.288;28.624;2023-05-22T00:27:07;99423.53;;;5.88;93.02
60337;BME280;46978;50.288;28.624;2023-05-22T00:28:10;99421.83;;;5.86;93.12
60337;BME280;46978;50.288;28.624;2023-05-22T00:29:31;99426.09;;;5.85;93.01
60337;BME280;46978;50.288;28.624;2023-05-22T00:30:33;99426.98;;;5.84;93.20
60337;BME280;46978;50.288;28.624;2023-05-22T00:31:35;99423.52;;;5.82;93.19
60337;BME280;46978;50.288;28.624;2023-05-22T00:32:38;99421.82;;;5.81;93.62
60337;BME280;46978;50.288;28.624;2023-05-22T00:33:39;99425.23;;;5.80;94.11
60337;BME280;46978;50.288;28.624;2023-05-22T00:34:41;99422.66;;;5.79;93.99
60337;BME280;46978;50.288;28.624;2023-05-22T00:35:43;99421.81;;;5.77;93.85
60337;BME280;46978;50.288;28.624;2023-05-22T00:36:44;99416.66;;;5.75;93.76
60337;BME280;46978;50.288;28.624;2023-05-22T00:37:46;99416.65;;;5.72;93.64
60337;BME280;46978;50.288;28.624;2023-05-22T00:38:47;99416.65;;;5.70;93.55
60337;BME280;46978;50.288;28.624;2023-05-22T00:39:49;99420.07;;;5.71;93.44
60337;BME280;46978;50.288;28.624;2023-05-22T00:40:51;99414.92;;;5.69;93.58
60337;BME280;46978;50.288;28.624;2023-05-22T00:41:53;99414.06;;;5.67;93.65
60337;BME280;46978;50.288;28.624;2023-05-22T00:42:54;99421.78;;;5.66;93.39
60337;BME280;46978;50.288;28.624;2023-05-22T00:43:55;99419.20;;;5.66;93.99
60337;BME280;46978;50.288;28.624;2023-05-22T00:44:57;99422.63;;;5.65;94.16
60337;BME280;46978;50.288;28.624;2023-05-22T00:45:59;99419.20;;;5.64;94.00
60337;BME280;46978;50.288;28.624;2023-05-22T00:47:01;99425.20;;;5.63;95.51
60337;BME280;46978;50.288;28.624;2023-05-22T00:48:03;99426.92;;;5.63;95.84
60337;BME280;46978;50.288;28.624;2023-05-22T00:49:04;99425.20;;;5.63;96.39
60337;BME280;46978;50.288;28.624;2023-05-22T00:50:09;99418.33;;;5.64;96.06
60337;BME280;46978;50.288;28.624;2023-05-22T00:51:11;99418.33;;;5.65;96.14
60337;BME280;46978;50.288;28.624;2023-05-22T00:52:13;99420.05;;;5.63;96.09
60337;BME280;46978;50.288;28.624;2023-05-22T00:53:15;99420.89;;;5.62;95.68
60337;BME280;46978;50.288;28.624;2023-05-22T00:54:17;99417.47;;;5.62;95.94
60337;BME280;46978;50.288;28.624;2023-05-22T00:55:19;99418.31;;;5.61;95.97
60337;BME280;46978;50.288;28.624;2023-05-22T00:56:20;99420.89;;;5.61;95.86
60337;BME280;46978;50.288;28.624;2023-05-22T00:57:22;99418.31;;;5.59;96.08
60337;BME280;46978;50.288;28.624;2023-05-22T00:58:25;99424.33;;;5.56;95.45
60337;BME280;46978;50.288;28.624;2023-05-22T00:59:28;99417.45;;;5.54;95.30
60337;BME280;46978;50.288;28.624;2023-05-22T01:00:30;99420.02;;;5.54;95.50
60337;BME280;46978;50.288;28.624;2023-05-22T01:01:32;99421.75;;;5.53;95.80
60337;BME280;46978;50.288;28.624;2023-05-22T01:02:34;99425.16;;;5.52;95.92
60337;BME280;46978;50.288;28.624;2023-05-22T01:03:37;99431.15;;;5.50;96.03
60337;BME280;46978;50.288;28.624;2023-05-22T01:04:39;99421.73;;;5.49;96.00
60337;BME280;46978;50.288;28.624;2023-05-22T01:05:42;99424.30;;;5.49;96.00
60337;BME280;46978;50.288;28.624;2023-05-22T01:06:44;99420.84;;;5.47;95.88
60337;BME280;46978;50.288;28.624;2023-05-22T01:07:45;99414.84;;;5.45;95.89
60337;BME280;46978;50.288;28.624;2023-05-22T01:08:47;99414.84;;;5.43;95.73
60337;BME280;46978;50.288;28.624;2023-05-22T01:09:49;99420.83;;;5.42;95.59
60337;BME280;46978;50.288;28.624;2023-05-22T01:11:01;99415.67;;;5.41;95.79
60337;BME280;46978;50.288;28.624;2023-05-22T01:16:25;99417.41;;;5.40;96.71
60337;BME280;46978;50.288;28.624;2023-05-22T01:17:33;99416.55;;;5.39;96.16
60337;BME280;46978;50.288;28.624;2023-05-22T01:18:55;99407.95;;;5.39;95.94
60337;BME280;46978;50.288;28.624;2023-05-22T01:20:17;99410.52;;;5.37;95.81
60337;BME280;46978;50.288;28.624;2023-05-22T01:25:55;99413.08;;;5.34;95.95
60337;BME280;46978;50.288;28.624;2023-05-22T01:29:51;99413.08;;;5.34;96.53
60337;BME280;46978;50.288;28.624;2023-05-22T01:32:03;99405.34;;;5.28;96.35
60337;BME280;46978;50.288;28.624;2023-05-22T01:33:06;99406.21;;;5.27;96.57
60337;BME280;46978;50.288;28.624;2023-05-22T01:34:10;99405.36;;;5.25;96.24
60337;BME280;46978;50.288;28.624;2023-05-22T01:35:14;99407.05;;;5.25;96.84
60337;BME280;46978;50.288;28.624;2023-05-22T01:36:19;99405.34;;;5.22;96.67
60337;BME280;46978;50.288;28.624;2023-05-22T01:37:22;99407.03;;;5.20;96.74
60337;BME280;46978;50.288;28.624;2023-05-22T01:38:24;99408.75;;;5.19;96.81
60337;BME280;46978;50.288;28.624;2023-05-22T01:39:27;99409.59;;;5.18;97.00
60337;BME280;46978;50.288;28.624;2023-05-22T01:40:30;99412.16;;;5.18;97.06
60337;BME280;46978;50.288;28.624;2023-05-22T01:41:32;99407.89;;;5.17;97.00
60337;BME280;46978;50.288;28.624;2023-05-22T01:42:34;99404.45;;;5.18;97.53
60337;BME280;46978;50.288;28.624;2023-05-22T01:43:36;99405.33;;;5.17;97.67
60337;BME280;46978;50.288;28.624;2023-05-22T01:44:39;99407.91;;;5.19;97.97
60337;BME280;46978;50.288;28.624;2023-05-22T01:45:41;99405.33;;;5.17;97.62
60337;BME280;46978;50.288;28.624;2023-05-22T01:46:43;99407.89;;;5.16;97.61
60337;BME280;46978;50.288;28.624;2023-05-22T01:47:44;99406.16;;;5.15;97.18
60337;BME280;46978;50.288;28.624;2023-05-22T01:48:46;99399.28;;;5.12;96.49
60337;BME280;46978;50.288;28.624;2023-05-22T01:49:48;99407.88;;;5.13;96.06
60337;BME280;46978;50.288;28.624;2023-05-22T01:50:51;99402.72;;;5.10;96.69
60337;BME280;46978;50.288;28.624;2023-05-22T01:51:56;99413.03;;;5.16;97.46
60337;BME280;46978;50.288;28.624;2023-05-22T01:54:27;99407.87;;;5.11;97.33
60337;BME280;46978;50.288;28.624;2023-05-22T01:55:41;99406.14;;;5.12;97.45
60337;BME280;46978;50.288;28.624;2023-05-22T01:56:47;99400.16;;;5.13;98.33
60337;BME280;46978;50.288;28.624;2023-05-22T01:57:58;99397.59;;;5.16;98.92
60337;BME280;46978;50.288;28.624;2023-05-22T01:59:01;99395.88;;;5.16;98.12
60337;BME280;46978;50.288;28.624;2023-05-22T02:00:06;99403.59;;;5.15;97.40
60337;BME280;46978;50.288;28.624;2023-05-22T02:01:09;99411.30;;;5.15;97.30
60337;BME280;46978;50.288;28.624;2023-05-22T02:02:14;99409.58;;;5.15;97.74
60337;BME280;46978;50.288;28.624;2023-05-22T02:03:19;99402.73;;;5.14;97.39
60337;BME280;46978;50.288;28.624;2023-05-22T02:04:22;99396.70;;;5.12;96.96
60337;BME280;46978;50.288;28.624;2023-05-22T02:05:25;99395.84;;;5.10;96.74
60337;BME280;46978;50.288;28.624;2023-05-22T02:06:30;99389.85;;;5.08;96.66
60337;BME280;46978;50.288;28.624;2023-05-22T02:07:35;99391.54;;;5.08;96.74
60337;BME280;46978;50.288;28.624;2023-05-22T02:08:40;99395.84;;;5.07;96.45
60337;BME280;46978;50.288;28.624;2023-05-22T02:09:43;99403.55;;;5.07;96.51
60337;BME280;46978;50.288;28.624;2023-05-22T02:10:47;99399.24;;;5.05;96.04
60337;BME280;46978;50.288;28.624;2023-05-22T02:11:50;99395.80;;;5.01;95.63
60337;BME280;46978;50.288;28.624;2023-05-22T02:12:52;99392.39;;;5.00;96.51
60337;BME280;46978;50.288;28.624;2023-05-22T02:13:55;99395.80;;;5.01;97.26
60337;BME280;46978;50.288;28.624;2023-05-22T02:14:57;99406.10;;;5.02;97.24
60337;BME280;46978;50.288;28.624;2023-05-22T02:16:00;99396.65;;;5.00;97.25
60337;BME280;46978;50.288;28.624;2023-05-22T02:17:02;99403.52;;;5.01;97.31
60337;BME280;46978;50.288;28.624;2023-05-22T02:18:08;99393.24;;;5.02;97.65
60337;BME280;46978;50.288;28.624;2023-05-22T02:19:09;99395.81;;;5.02;97.67
60337;BME280;46978;50.288;28.624;2023-05-22T02:20:12;99402.69;;;5.03;97.35
60337;BME280;46978;50.288;28.624;2023-05-22T02:21:14;99393.25;;;5.04;97.68
60337;BME280;46978;50.288;28.624;2023-05-22T02:22:16;99402.70;;;5.05;97.45
60337;BME280;46978;50.288;28.624;2023-05-22T02:23:17;99394.98;;;5.05;97.56
60337;BME280;46978;50.288;28.624;2023-05-22T02:24:20;99404.39;;;5.06;97.28
60337;BME280;46978;50.288;28.624;2023-05-22T02:25:22;99407.84;;;5.05;96.90
60337;BME280;46978;50.288;28.624;2023-05-22T02:26:23;99405.28;;;5.08;97.05
60337;BME280;46978;50.288;28.624;2023-05-22T02:27:25;99396.69;;;5.09;96.97
60337;BME280;46978;50.288;28.624;2023-05-22T02:28:26;99400.16;;;5.11;96.75
60337;BME280;46978;50.288;28.624;2023-05-22T02:29:28;99398.43;;;5.12;96.47
60337;BME280;46978;50.288;28.624;2023-05-22T02:30:30;99398.44;;;5.15;96.69
60337;BME280;46978;50.288;28.624;2023-05-22T02:31:31;99395.88;;;5.18;96.84
60337;BME280;46978;50.288;28.624;2023-05-22T02:32:33;99396.73;;;5.20;96.76
60337;BME280;46978;50.288;28.624;2023-05-22T02:33:34;99401.05;;;5.24;96.73
60337;BME280;46978;50.288;28.624;2023-05-22T02:34:36;99405.34;;;5.30;96.97
60337;BME280;46978;50.288;28.624;2023-05-22T02:35:37;99398.52;;;5.33;96.76
60337;BME280;46978;50.288;28.624;2023-05-22T02:36:39;99398.52;;;5.35;96.47
60337;BME280;46978;50.288;28.624;2023-05-22T02:37:41;99395.08;;;5.39;96.15
60337;BME280;46978;50.288;28.624;2023-05-22T02:38:43;99397.66;;;5.41;95.71
60337;BME280;46978;50.288;28.624;2023-05-22T02:39:44;99389.10;;;5.42;94.46
60337;BME280;46978;50.288;28.624;2023-05-22T02:40:46;99385.67;;;5.41;94.79
60337;BME280;46978;50.288;28.624;2023-05-22T02:41:48;99391.68;;;5.45;94.85
60337;BME280;46978;50.288;28.624;2023-05-22T02:42:49;99388.27;;;5.49;95.58
60337;BME280;46978;50.288;28.624;2023-05-22T02:43:51;99389.14;;;5.57;95.96
60337;BME280;46978;50.288;28.624;2023-05-22T02:44:52;99389.16;;;5.66;96.23
60337;BME280;46978;50.288;28.624;2023-05-22T02:45:54;99382.30;;;5.74;95.96
60337;BME280;46978;50.288;28.624;2023-05-22T02:46:56;99377.17;;;5.82;95.85
60337;BME280;46978;50.288;28.624;2023-05-22T02:47:57;99382.33;;;5.90;95.58
60337;BME280;46978;50.288;28.624;2023-05-22T02:48:59;99383.25;;;5.97;95.23
60337;BME280;46978;50.288;28.624;2023-05-22T02:50:00;99390.10;;;6.08;94.69
60337;BME280;46978;50.288;28.624;2023-05-22T02:51:02;99378.10;;;6.23;94.54
60337;BME280;46978;50.288;28.624;2023-05-22T02:52:04;99381.52;;;6.40;93.67
60337;BME280;46978;50.288;28.624;2023-05-22T02:53:05;99374.60;;;6.61;93.47
60337;BME280;46978;50.288;28.624;2023-05-22T02:54:07;99381.44;;;6.84;92.80
60337;BME280;46978;50.288;28.624;2023-05-22T02:55:09;99377.91;;;7.08;91.67
60337;BME280;46978;50.288;28.624;2023-05-22T02:56:11;99382.13;;;7.30;90.65
60337;BME280;46978;50.288;28.624;2023-05-22T02:57:12;99383.73;;;7.54;89.06
60337;BME280;46978;50.288;28.624;2023-05-22T02:58:14;99380.14;;;7.77;87.89
60337;BME280;46978;50.288;28.624;2023-05-22T02:59:15;99380.86;;;7.96;86.16
60337;BME280;46978;50.288;28.624;2023-05-22T03:00:18;99377.27;;;8.17;85.55
60337;BME280;46978;50.288;28.624;2023-05-22T03:01:20;99374.48;;;8.40;85.06
60337;BME280;46978;50.288;28.624;2023-05-22T03:02:24;99371.67;;;8.67;84.79
60337;BME280;46978;50.288;28.624;2023-05-22T03:03:26;99379.12;;;8.96;83.76
60337;BME280;46978;50.288;28.624;2023-05-22T03:04:27;99376.17;;;9.27;82.38
60337;BME280;46978;50.288;28.624;2023-05-22T03:05:29;99379.27;;;9.54;80.65
60337;BME280;46978;50.288;28.624;2023-05-22T03:06:31;99377.23;;;9.74;79.03
60337;BME280;46978;50.288;28.624;2023-05-22T03:07:33;99377.77;;;9.98;77.76
60337;BME280;46978;50.288;28.624;2023-05-22T03:08:35;99380.00;;;10.21;76.36
60337;BME280;46978;50.288;28.624;2023-05-22T03:09:37;99378.80;;;10.42;75.39
60337;BME280;46978;50.288;28.624;2023-05-22T03:10:41;99380.14;;;10.65;74.26
60337;BME280;46978;50.288;28.624;2023-05-22T03:11:43;99384.11;;;10.83;73.05
60337;BME280;46978;50.288;28.624;2023-05-22T03:12:45;99372.47;;;11.04;72.06
60337;BME280;46978;50.288;28.624;2023-05-22T03:13:46;99378.10;;;11.24;71.14
60337;BME280;46978;50.288;28.624;2023-05-22T03:14:48;99377.69;;;11.44;70.14
60337;BME280;46978;50.288;28.624;2023-05-22T03:15:49;99374.72;;;11.61;69.24
60337;BME280;46978;50.288;28.624;2023-05-22T03:16:51;99376.09;;;11.78;68.40
60337;BME280;46978;50.288;28.624;2023-05-22T03:17:53;99371.42;;;11.94;67.34
60337;BME280;46978;50.288;28.624;2023-05-22T03:19:11;99378.01;;;12.09;66.83
60337;BME280;46978;50.288;28.624;2023-05-22T03:20:14;99375.03;;;12.24;66.10
60337;BME280;46978;50.288;28.624;2023-05-22T03:21:16;99373.01;;;12.35;65.50
60337;BME280;46978;50.288;28.624;2023-05-22T03:22:17;99372.93;;;12.38;65.39
60337;BME280;46978;50.288;28.624;2023-05-22T03:23:19;99374.58;;;12.43;64.82
60337;BME280;46978;50.288;28.624;2023-05-22T03:24:20;99379.66;;;12.47;64.68
60337;BME280;46978;50.288;28.624;2023-05-22T03:25:22;99379.50;;;12.53;64.60
60337;BME280;46978;50.288;28.624;2023-05-22T03:26:24;99373.14;;;12.64;63.95
60337;BME280;46978;50.288;28.624;2023-05-22T03:27:26;99372.17;;;12.68;61.80
60337;BME280;46978;50.288;28.624;2023-05-22T03:28:27;99376.94;;;12.52;60.88
60337;BME280;46978;50.288;28.624;2023-05-22T03:29:29;99369.29;;;12.46;61.24
60337;BME280;46978;50.288;28.624;2023-05-22T03:30:30;99383.03;;;12.51;62.87
60337;BME280;46978;50.288;28.624;2023-05-22T03:31:33;99369.49;;;12.71;62.99
60337;BME280;46978;50.288;28.624;2023-05-22T03:32:34;99378.36;;;12.97;61.87
60337;BME280;46978;50.288;28.624;2023-05-22T03:33:36;99371.13;;;13.06;60.91
60337;BME280;46978;50.288;28.624;2023-05-22T03:34:38;99373.34;;;13.20;61.27
60337;BME280;46978;50.288;28.624;2023-05-22T03:35:39;99378.19;;;13.34;60.79
60337;BME280;46978;50.288;28.624;2023-05-22T03:36:41;99383.03;;;13.47;60.77
60337;BME280;46978;50.288;28.624;2023-05-22T03:37:42;99379.05;;;13.63;60.03
60337;BME280;46978;50.288;28.624;2023-05-22T03:38:44;99381.88;;;13.85;59.50
60337;BME280;46978;50.288;28.624;2023-05-22T03:39:46;99385.73;;;14.00;57.89
60337;BME280;46978;50.288;28.624;2023-05-22T03:40:47;99375.63;;;14.18;58.26
60337;BME280;46978;50.288;28.624;2023-05-22T03:41:49;99374.91;;;14.39;58.29
60337;BME280;46978;50.288;28.624;2023-05-22T03:42:51;99381.07;;;14.63;57.59
60337;BME280;46978;50.288;28.624;2023-05-22T03:43:52;99377.66;;;14.86;57.10
60337;BME280;46978;50.288;28.624;2023-05-22T03:44:54;99382.89;;;15.10;56.47
60337;BME280;46978;50.288;28.624;2023-05-22T03:45:55;99372.69;;;15.28;55.55
60337;BME280;46978;50.288;28.624;2023-05-22T03:46:57;99380.92;;;15.40;55.27
60337;BME280;46978;50.288;28.624;2023-05-22T03:47:58;99380.45;;;15.53;53.58
60337;BME280;46978;50.288;28.624;2023-05-22T03:49:00;99378.56;;;15.56;53.06
60337;BME280;46978;50.288;28.624;2023-05-22T03:50:02;99383.37;;;15.67;53.74
60337;BME280;46978;50.288;28.624;2023-05-22T03:51:04;99381.31;;;15.77;53.47
60337;BME280;46978;50.288;28.624;2023-05-22T03:52:10;99384.41;;;15.87;52.60
60337;BME280;46978;50.288;28.624;2023-05-22T03:53:12;99372.64;;;15.97;52.32
60337;BME280;46978;50.288;28.624;2023-05-22T03:54:14;99380.87;;;16.10;52.34
60337;BME280;46978;50.288;28.624;2023-05-22T03:55:15;99383.52;;;16.30;51.61
60337;BME280;46978;50.288;28.624;2023-05-22T03:56:17;99378.41;;;16.48;49.79
60337;BME280;46978;50.288;28.624;2023-05-22T03:57:18;99378.61;;;16.43;49.16
60337;BME280;46978;50.288;28.624;2023-05-22T03:58:20;99379.31;;;16.26;48.77
60337;BME280;46978;50.288;28.624;2023-05-22T03:59:21;99375.01;;;16.25;50.05
60337;BME280;46978;50.288;28.624;2023-05-22T04:00:23;99382.11;;;16.22;49.46
60337;BME280;46978;50.288;28.624;2023-05-22T04:01:25;99382.30;;;16.17;49.96
60337;BME280;46978;50.288;28.624;2023-05-22T04:02:26;99379.92;;;16.33;50.35
60337;BME280;46978;50.288;28.624;2023-05-22T04:03:28;99375.20;;;16.41;49.05
60337;BME280;46978;50.288;28.624;2023-05-22T04:04:31;99378.22;;;16.53;50.13
60337;BME280;46978;50.288;28.624;2023-05-22T04:05:32;99382.47;;;16.76;49.76
60337;BME280;46978;50.288;28.624;2023-05-22T04:06:34;99377.27;;;16.96;49.28
60337;BME280;46978;50.288;28.624;2023-05-22T04:07:36;99369.28;;;17.18;48.97
60337;BME280;46978;50.288;28.624;2023-05-22T04:08:37;99372.33;;;17.28;48.10
60337;BME280;46978;50.288;28.624;2023-05-22T04:09:39;99371.00;;;17.38;48.50
60337;BME280;46978;50.288;28.624;2023-05-22T04:10:41;99378.58;;;17.45;47.66
60337;BME280;46978;50.288;28.624;2023-05-22T04:11:43;99385.36;;;17.49;47.30
60337;BME280;46978;50.288;28.624;2023-05-22T04:12:44;99378.85;;;17.58;47.45
60337;BME280;46978;50.288;28.624;2023-05-22T04:13:48;99387.06;;;17.69;46.43
60337;BME280;46978;50.288;28.624;2023-05-22T04:14:50;99377.98;;;17.76;46.45
60337;BME280;46978;50.288;28.624;2023-05-22T04:15:51;99380.09;;;17.87;46.79
60337;BME280;46978;50.288;28.624;2023-05-22T04:16:53;99374.36;;;17.98;46.51
60337;BME280;46978;50.288;28.624;2023-05-22T04:17:54;99377.16;;;18.12;46.32
60337;BME280;46978;50.288;28.624;2023-05-22T04:18:56;99373.92;;;18.24;46.33
60337;BME280;46978;50.288;28.624;2023-05-22T04:19:58;99370.08;;;18.32;45.80
60337;BME280;46978;50.288;28.624;2023-05-22T04:21:00;99373.88;;;18.43;45.13
60337;BME280;46978;50.288;28.624;2023-05-22T04:22:04;99370.06;;;18.49;45.01
60337;BME280;46978;50.288;28.624;2023-05-22T04:23:06;99366.21;;;18.56;44.72
60337;BME280;46978;50.288;28.624;2023-05-22T04:24:07;99374.62;;;18.63;44.43
60337;BME280;46978;50.288;28.624;2023-05-22T04:25:09;99367.50;;;18.65;44.42
60337;BME280;46978;50.288;28.624;2023-05-22T04:26:11;99367.58;;;18.63;44.45
60337;BME280;46978;50.288;28.624;2023-05-22T04:27:13;99371.99;;;18.63;45.07
60337;BME280;46978;50.288;28.624;2023-05-22T04:28:14;99368.20;;;18.69;44.94
60337;BME280;46978;50.288;28.624;2023-05-22T04:29:16;99372.59;;;18.68;44.01
60337;BME280;46978;50.288;28.624;2023-05-22T04:30:18;99367.41;;;18.67;44.13
60337;BME280;46978;50.288;28.624;2023-05-22T04:31:19;99361.72;;;18.58;44.13
60337;BME280;46978;50.288;28.624;2023-05-22T04:32:21;99369.60;;;18.58;44.65
60337;BME280;46978;50.288;28.624;2023-05-22T04:33:22;99369.83;;;18.54;44.02
60337;BME280;46978;50.288;28.624;2023-05-22T04:34:25;99369.15;;;18.50;44.21
60337;BME280;46978;50.288;28.624;2023-05-22T04:35:26;99370.14;;;18.48;44.75
60337;BME280;46978;50.288;28.624;2023-05-22T04:36:28;99361.05;;;18.37;44.64
60337;BME280;46978;50.288;28.624;2023-05-22T04:37:29;99363.03;;;18.32;45.46
60337;BME280;46978;50.288;28.624;2023-05-22T04:38:31;99361.51;;;18.28;45.65
60337;BME280;46978;50.288;28.624;2023-05-22T04:39:33;99363.03;;;18.32;45.33
60337;BME280;46978;50.288;28.624;2023-05-22T04:40:35;99369.69;;;18.39;45.37
60337;BME280;46978;50.288;28.624;2023-05-22T04:41:37;99364.97;;;18.46;45.12
60337;BME280;46978;50.288;28.624;2023-05-22T04:42:38;99369.38;;;18.45;45.00
60337;BME280;46978;50.288;28.624;2023-05-22T04:43:40;99364.12;;;18.45;45.21
60337;BME280;46978;50.288;28.624;2023-05-22T04:44:41;99366.67;;;18.47;45.33
60337;BME280;46978;50.288;28.624;2023-05-22T04:45:43;99370.91;;;18.50;45.52
60337;BME280;46978;50.288;28.624;2023-05-22T04:46:45;99369.98;;;18.51;45.42
60337;BME280;46978;50.288;28.624;2023-05-22T04:47:46;99368.52;;;18.45;45.40
60337;BME280;46978;50.288;28.624;2023-05-22T04:48:48;99369.16;;;18.33;45.95
60337;BME280;46978;50.288;28.624;2023-05-22T04:49:49;99365.51;;;18.18;45.68
60337;BME280;46978;50.288;28.624;2023-05-22T04:50:51;99373.52;;;17.97;46.01
60337;BME280;46978;50.288;28.624;2023-05-22T04:51:54;99374.01;;;17.86;46.77
60337;BME280;46978;50.288;28.624;2023-05-22T04:52:56;99368.25;;;17.78;46.75
60337;BME280;46978;50.288;28.624;2023-05-22T04:53:57;99373.31;;;17.64;46.92
60337;BME280;46978;50.288;28.624;2023-05-22T04:54:59;99368.71;;;17.50;47.18
60337;BME280;46978;50.288;28.624;2023-05-22T04:56:01;99365.89;;;17.35;48.09
60337;BME280;46978;50.288;28.624;2023-05-22T04:57:02;99370.75;;;17.24;48.08
60337;BME280;46978;50.288;28.624;2023-05-22T04:58:04;99375.36;;;17.19;48.95
60337;BME280;46978;50.288;28.624;2023-05-22T04:59:05;99372.88;;;17.16;49.00
60337;BME280;46978;50.288;28.624;2023-05-22T05:00:08;99366.94;;;17.12;48.86
60337;BME280;46978;50.288;28.624;2023-05-22T05:01:10;99373.30;;;17.07;49.14
60337;BME280;46978;50.288;28.624;2023-05-22T05:02:11;99374.64;;;16.96;49.68
60337;BME280;46978;50.288;28.624;2023-05-22T05:03:13;99375.82;;;16.89;49.95
60337;BME280;46978;50.288;28.624;2023-05-22T05:04:15;99373.34;;;16.86;50.31
60337;BME280;46978;50.288;28.624;2023-05-22T05:05:17;99361.00;;;16.88;50.94
60337;BME280;46978;50.288;28.624;2023-05-22T05:06:18;99361.67;;;16.93;50.52
60337;BME280;46978;50.288;28.624;2023-05-22T05:07:20;99364.86;;;17.00;50.57
60337;BME280;46978;50.288;28.624;2023-05-22T05:08:21;99370.67;;;17.07;50.50
60337;BME280;46978;50.288;28.624;2023-05-22T05:09:24;99376.05;;;17.03;50.13
60337;BME280;46978;50.288;28.624;2023-05-22T05:10:26;99367.63;;;16.97;49.82
60337;BME280;46978;50.288;28.624;2023-05-22T05:11:27;99368.73;;;16.91;50.06
60337;BME280;46978;50.288;28.624;2023-05-22T05:12:29;99368.73;;;16.91;50.06
60337;BME280;46978;50.288;28.624;2023-05-22T05:13:30;99368.13;;;16.84;49.84
60337;BME280;46978;50.288;28.624;2023-05-22T05:14:32;99362.11;;;16.82;50.01
60337;BME280;46978;50.288;28.624;2023-05-22T05:15:33;99369.11;;;16.82;49.91
60337;BME280;46978;50.288;28.624;2023-05-22T05:16:35;99365.78;;;16.78;49.60
60337;BME280;46978;50.288;28.624;2023-05-22T05:17:37;99364.06;;;16.77;50.21
60337;BME280;46978;50.288;28.624;2023-05-22T05:18:38;99372.59;;;16.82;49.83
60337;BME280;46978;50.288;28.624;2023-05-22T05:19:40;99368.97;;;16.85;49.87
60337;BME280;46978;50.288;28.624;2023-05-22T05:20:41;99377.03;;;16.80;49.66
60337;BME280;46978;50.288;28.624;2023-05-22T05:21:43;99364.47;;;16.68;49.34
60337;BME280;46978;50.288;28.624;2023-05-22T05:22:44;99372.59;;;16.62;49.78
60337;BME280;46978;50.288;28.624;2023-05-22T05:23:46;99372.72;;;16.59;49.91
60337;BME280;46978;50.288;28.624;2023-05-22T05:24:48;99371.03;;;16.58;49.99
60337;BME280;46978;50.288;28.624;2023-05-22T05:25:50;99364.02;;;16.58;49.72
60337;BME280;46978;50.288;28.624;2023-05-22T05:26:51;99367.61;;;16.56;49.89
60337;BME280;46978;50.288;28.624;2023-05-22T05:27:53;99369.97;;;16.62;50.38
60337;BME280;46978;50.288;28.624;2023-05-22T05:28:54;99365.41;;;16.67;50.29
60337;BME280;46978;50.288;28.624;2023-05-22T05:29:56;99369.57;;;16.71;50.22
60337;BME280;46978;50.288;28.624;2023-05-22T05:30:58;99366.88;;;16.73;50.71
60337;BME280;46978;50.288;28.624;2023-05-22T05:31:59;99368.46;;;16.77;49.78
60337;BME280;46978;50.288;28.624;2023-05-22T05:33:01;99362.95;;;16.83;50.15
60337;BME280;46978;50.288;28.624;2023-05-22T05:34:02;99367.12;;;16.89;50.37
60337;BME280;46978;50.288;28.624;2023-05-22T05:35:04;99364.02;;;16.99;50.44
60337;BME280;46978;50.288;28.624;2023-05-22T05:36:07;99362.88;;;17.05;50.18
60337;BME280;46978;50.288;28.624;2023-05-22T05:37:08;99357.29;;;17.13;50.07
60337;BME280;46978;50.288;28.624;2023-05-22T05:38:10;99364.73;;;17.22;49.19
60337;BME280;46978;50.288;28.624;2023-05-22T05:39:12;99361.00;;;17.28;48.06
60337;BME280;46978;50.288;28.624;2023-05-22T05:40:14;99367.99;;;17.27;47.80
60337;BME280;46978;50.288;28.624;2023-05-22T05:41:15;99360.20;;;17.26;47.53
60337;BME280;46978;50.288;28.624;2023-05-22T05:42:17;99362.61;;;17.30;47.76